Aerodrom Zabok-Gubaševo

LDZK · Krapinsko-Zagorska, 克罗地亚

使用的TAF站离机场有28 km的距离
2024年7月25日 20:002024年7月26日 05:00有效
时间
星期四
20:00
星期四
21:00
星期四
22:00
星期四
23:00
星期五
00:00
星期五
01:00
星期五
02:00
星期五
03:00
星期五
04:00
代码
VFR
VFR
VFR
VFR
VFR
VFR
VFR
VFR
VFR
天气
天空晴朗
天空晴朗
天空晴朗
天空晴朗
天空晴朗
天空晴朗
天空晴朗
天空晴朗
天空晴朗
能见度
10 km+
10 km+
10 km+
10 km+
10 km+
10 km+
10 km+
10 km+
10 km+
天花板
-
-
-
-
-
-
-
-
-
120°
120°
120°
120°
120°
120°
120°
120°
120°
120°
120°
120°
120°
120°
120°
120°
120°
120°
速度
4 kt
4 kt
4 kt
4 kt
4 kt
4 kt
4 kt
4 kt
4 kt
阵风
温度/星期日
20:35

原版的

TAF LJCE 251700Z 2518/2603 12004KT CAVOK

TAF Aerodrom Zabok-Gubaševo

Aerodrom Zabok-Gubaševo是,克罗地亚中的小机场。 该机场位于纬度46,01276和经度15,86018。 该机场有一条跑道: 17/35. 本场的ICAO机场代码为LDZK。 机场在Ljubljana FIR中。

该航空气象观测是针对Cerklje Air Base在2024年7月25日 19:00, 当地时间进行的。 从2024年7月25日 20:00到2024年7月26日 05:00, 当地时间有效.

预报

  • 在星期四 20:00和星期五 05:00之间

    • 风: 风来自120°方向,速度为4 kt。
    • CAVOK: 天气为CAVOK。这意味着在5.000 ft或MSA(最低安全高度)以下(以较高者为准)以下没有云。这也意味着没有观测到积雨云或高耸的积云,可见度为10 km 或者更多或更高。此外,不会有雾,降雨或其他重要天气。

白天

今天,太阳从05:31升起,在20:34降落。 这适用于Aerodrom Zabok-Gubaševo,世界夏令时可能有所不同。 当地时间与世界标准时间之间的时差为+2 小时。 夏令时目前正在进行中。

报告变更